createdAt,value
2022-12-04T00:00:35.672Z,17.98
2022-12-04T00:03:03.353Z,18.60
2022-12-04T00:05:31.109Z,17.95
2022-12-04T00:08:00.225Z,17.58
2022-12-04T00:10:28.106Z,18.25
2022-12-04T00:12:55.751Z,17.80
2022-12-04T00:15:25.606Z,16.83
2022-12-04T00:17:54.345Z,17.52
2022-12-04T00:20:22.897Z,17.30
2022-12-04T00:22:50.793Z,16.75
2022-12-04T00:25:19.870Z,18.40
2022-12-04T00:27:47.451Z,19.00
2022-12-04T00:30:15.324Z,18.58
2022-12-04T00:32:42.980Z,19.30
2022-12-04T00:35:10.852Z,18.05
2022-12-04T00:37:38.713Z,17.70
2022-12-04T00:40:08.049Z,17.35
2022-12-04T00:42:37.041Z,17.55
2022-12-04T00:45:05.227Z,16.95
2022-12-04T00:47:32.845Z,17.40
2022-12-04T00:50:00.487Z,17.73
2022-12-04T00:52:28.260Z,17.58
2022-12-04T00:54:56.640Z,17.23
2022-12-04T00:57:24.200Z,17.60
2022-12-04T00:59:53.565Z,17.42
2022-12-04T01:02:21.447Z,16.95
2022-12-04T01:04:49.118Z,17.33
2022-12-04T01:07:16.764Z,18.10
2022-12-04T01:09:44.406Z,18.02
2022-12-04T01:12:16.154Z,17.98
2022-12-04T01:14:46.744Z,17.85
2022-12-04T01:17:15.793Z,18.03
2022-12-04T01:19:43.652Z,18.10
2022-12-04T01:22:11.503Z,17.02
2022-12-04T01:24:39.114Z,17.65
2022-12-04T01:27:06.707Z,17.50
2022-12-04T01:29:34.423Z,17.42
2022-12-04T01:32:02.142Z,17.70
2022-12-04T01:34:31.411Z,16.83
2022-12-04T01:36:59.055Z,16.77
2022-12-04T01:39:26.671Z,17.08
2022-12-04T01:41:54.281Z,16.98
2022-12-04T01:44:23.592Z,17.05
2022-12-04T01:46:52.959Z,17.30
2022-12-04T01:49:24.653Z,17.60
2022-12-04T01:51:57.128Z,16.88
2022-12-04T01:54:29.045Z,17.20
2022-12-04T01:57:01.305Z,17.40
2022-12-04T01:59:33.247Z,17.30
2022-12-04T02:02:05.167Z,17.33
2022-12-04T02:04:35.316Z,16.88
2022-12-04T02:07:05.057Z,16.67
2022-12-04T02:09:34.044Z,16.77
2022-12-04T02:12:08.674Z,16.85
2022-12-04T02:14:45.591Z,16.75
2022-12-04T02:17:21.420Z,17.00
2022-12-04T02:20:14.160Z,18.17
2022-12-04T02:23:20.845Z,17.67
2022-12-04T02:25:58.282Z,17.50
2022-12-04T02:28:33.305Z,18.02
2022-12-04T02:31:03.262Z,17.67
2022-12-04T02:33:35.956Z,17.67
2022-12-04T02:36:08.101Z,17.98
2022-12-04T02:38:39.903Z,17.83
2022-12-04T02:41:12.420Z,18.10
2022-12-04T02:43:46.341Z,18.60
2022-12-04T02:46:19.715Z,18.35
2022-12-04T02:48:50.441Z,18.50
2022-12-04T02:51:21.378Z,18.98
2022-12-04T02:53:53.784Z,19.00
2022-12-04T02:56:27.522Z,18.48
2022-12-04T02:58:59.840Z,17.40
2022-12-04T03:01:31.207Z,17.77
2022-12-04T03:04:01.756Z,17.50
2022-12-04T03:06:33.536Z,17.08
2022-12-04T03:09:07.697Z,17.63
2022-12-04T03:11:37.141Z,17.73
2022-12-04T03:14:14.356Z,17.27
2022-12-04T03:16:43.677Z,16.90
2022-12-04T03:19:17.549Z,16.23
2022-12-04T03:21:49.537Z,17.42
2022-12-04T03:24:20.994Z,17.20
2022-12-04T03:26:52.269Z,17.48
2022-12-04T03:29:24.472Z,17.60
2022-12-04T03:31:58.775Z,17.00
2022-12-04T03:34:35.047Z,17.88
2022-12-04T03:37:09.558Z,17.13
2022-12-04T03:39:39.836Z,17.88
2022-12-04T03:42:12.848Z,17.88
2022-12-04T03:44:47.476Z,18.00
2022-12-04T03:47:20.333Z,17.88
2022-12-04T03:49:56.313Z,17.80
2022-12-04T03:52:28.301Z,17.55
2022-12-04T03:55:01.891Z,18.77
2022-12-04T03:57:34.380Z,19.00
2022-12-04T04:00:08.540Z,17.70
2022-12-04T04:02:40.970Z,18.75
2022-12-04T04:05:10.949Z,18.88
2022-12-04T04:07:43.507Z,19.33
2022-12-04T04:10:16.709Z,18.60
2022-12-04T04:13:13.801Z,18.25
2022-12-04T04:16:05.190Z,18.35
2022-12-04T04:18:47.518Z,18.35
2022-12-04T04:21:37.659Z,18.33
2022-12-04T04:24:16.092Z,18.50
2022-12-04T04:26:46.972Z,17.83
2022-12-04T04:29:14.978Z,17.38
2022-12-04T04:31:51.300Z,17.27
2022-12-04T04:34:23.176Z,17.97
2022-12-04T04:36:56.594Z,18.20
2022-12-04T04:39:34.120Z,18.40
2022-12-04T04:42:05.920Z,18.75
2022-12-04T04:44:41.015Z,19.05
2022-12-04T04:47:17.325Z,18.63
2022-12-04T04:49:47.234Z,18.35
2022-12-04T04:52:15.875Z,18.02
2022-12-04T04:54:44.308Z,17.73
2022-12-04T04:57:12.151Z,18.00
2022-12-04T04:59:39.878Z,17.43
2022-12-04T05:02:07.547Z,17.73
2022-12-04T05:04:36.602Z,17.85
2022-12-04T05:07:04.211Z,18.30
2022-12-04T05:09:34.604Z,17.75
2022-12-04T05:12:04.750Z,18.00
2022-12-04T05:14:32.401Z,17.88
2022-12-04T05:17:01.983Z,17.60
2022-12-04T05:19:50.783Z,17.13
2022-12-04T05:22:20.049Z,17.73
2022-12-04T05:24:47.700Z,16.60
2022-12-04T05:27:15.546Z,16.17
2022-12-04T05:29:43.281Z,16.13
2022-12-04T05:32:10.962Z,15.10
2022-12-04T05:34:38.607Z,14.68
2022-12-04T05:37:06.370Z,15.00
2022-12-04T05:39:35.805Z,15.48
2022-12-04T05:42:03.479Z,14.98
2022-12-04T05:44:31.104Z,14.80
2022-12-04T05:46:58.847Z,14.53
2022-12-04T05:49:26.668Z,14.77
2022-12-04T05:51:54.321Z,13.93
2022-12-04T05:54:22.056Z,14.13
2022-12-04T05:56:51.256Z,14.30
2022-12-04T05:59:19.581Z,14.10
2022-12-04T06:01:47.701Z,13.30
2022-12-04T06:04:15.384Z,14.45
2022-12-04T06:06:43.048Z,13.97
2022-12-04T06:09:11.810Z,14.00
2022-12-04T06:11:42.203Z,13.70
2022-12-04T06:14:14.672Z,13.25
2022-12-04T06:16:44.681Z,13.57
2022-12-04T06:19:15.964Z,13.50
2022-12-04T06:21:45.818Z,13.77
2022-12-04T06:24:15.804Z,13.98
2022-12-04T06:27:03.981Z,13.98
2022-12-04T06:29:33.228Z,13.65
2022-12-04T06:32:02.060Z,14.20
2022-12-04T06:34:30.013Z,14.18
2022-12-04T06:36:57.728Z,13.70
2022-12-04T06:39:25.370Z,14.52
2022-12-04T06:41:53.020Z,14.68
2022-12-04T06:44:20.699Z,14.87
2022-12-04T06:46:50.359Z,15.10
2022-12-04T06:49:22.756Z,15.30
2022-12-04T06:51:50.429Z,14.80
2022-12-04T06:54:18.026Z,14.80
2022-12-04T06:56:45.614Z,14.70
2022-12-04T06:59:13.649Z,14.02
2022-12-04T07:01:41.334Z,14.30
2022-12-04T07:04:10.300Z,14.75
2022-12-04T07:06:39.929Z,15.30
2022-12-04T07:09:11.089Z,14.60
2022-12-04T07:11:39.538Z,16.35
2022-12-04T07:14:07.274Z,17.90
2022-12-04T07:16:40.320Z,17.15
2022-12-04T07:19:10.450Z,15.25
2022-12-04T07:21:38.112Z,15.10
2022-12-04T07:24:05.910Z,14.95
2022-12-04T07:26:33.555Z,15.43
2022-12-04T07:29:02.439Z,17.33
2022-12-04T07:31:30.639Z,21.33
2022-12-04T07:33:58.914Z,16.23
2022-12-04T07:36:28.602Z,16.43
2022-12-04T07:38:57.269Z,15.90
2022-12-04T07:41:25.337Z,15.63
2022-12-04T07:43:53.047Z,14.70
2022-12-04T07:46:22.898Z,14.85
2022-12-04T07:48:50.717Z,15.13
2022-12-04T07:51:19.874Z,15.25
2022-12-04T07:53:49.820Z,15.18
2022-12-04T07:56:18.216Z,14.73
2022-12-04T07:58:45.870Z,14.10
2022-12-04T08:01:16.169Z,19.23
2022-12-04T08:03:48.596Z,17.88
2022-12-04T08:06:17.752Z,17.77
2022-12-04T08:08:45.411Z,22.77
2022-12-04T08:11:16.934Z,16.38
2022-12-04T08:13:44.930Z,15.35
2022-12-04T08:16:13.293Z,16.88
2022-12-04T08:18:41.572Z,16.05
2022-12-04T08:21:11.679Z,14.27
2022-12-04T08:23:42.864Z,14.70
2022-12-04T08:26:11.133Z,14.43
2022-12-04T08:28:40.656Z,14.90
2022-12-04T08:31:11.027Z,15.32
2022-12-04T08:33:38.744Z,15.63
2022-12-04T08:36:08.551Z,15.02
2022-12-04T08:38:36.325Z,14.20
2022-12-04T08:41:06.243Z,14.60
2022-12-04T08:43:34.312Z,14.77
2022-12-04T08:46:04.984Z,16.15
2022-12-04T08:48:33.165Z,15.77
2022-12-04T08:51:01.468Z,15.02
2022-12-04T08:53:29.080Z,14.75
2022-12-04T08:55:56.922Z,14.80
2022-12-04T08:58:24.695Z,15.20
2022-12-04T09:00:52.321Z,14.75
2022-12-04T09:03:27.521Z,15.48
2022-12-04T09:05:59.946Z,14.65
2022-12-04T09:08:27.550Z,15.63
2022-12-04T09:10:55.349Z,15.02
2022-12-04T09:13:22.964Z,20.07
2022-12-04T09:15:50.663Z,21.60
2022-12-04T09:18:18.369Z,37.25
2022-12-04T09:20:56.509Z,23.98
2022-12-04T09:23:24.178Z,22.48
2022-12-04T09:25:52.240Z,19.15
2022-12-04T09:28:20.161Z,20.80
2022-12-04T09:30:57.502Z,19.50
2022-12-04T09:33:25.282Z,19.10
2022-12-04T09:35:54.418Z,19.15
2022-12-04T09:38:22.227Z,17.57
2022-12-04T09:40:58.967Z,16.97
2022-12-04T09:43:32.328Z,16.98
2022-12-04T09:46:05.590Z,17.83
2022-12-04T09:48:36.805Z,17.70
2022-12-04T09:51:07.888Z,16.35
2022-12-04T09:53:44.985Z,17.25
2022-12-04T09:56:14.959Z,18.15
2022-12-04T09:58:48.181Z,18.42
2022-12-04T10:01:23.601Z,16.50
2022-12-04T10:03:51.638Z,16.60
2022-12-04T10:06:25.248Z,16.73
2022-12-04T10:09:01.207Z,16.83
2022-12-04T10:11:36.395Z,16.80
2022-12-04T10:14:18.142Z,17.38
2022-12-04T10:17:14.566Z,18.77
2022-12-04T10:19:50.931Z,18.42
2022-12-04T10:22:26.809Z,17.88
2022-12-04T10:24:57.217Z,19.13
2022-12-04T10:27:29.084Z,21.67
2022-12-04T10:30:00.217Z,17.15
2022-12-04T10:32:32.911Z,18.27
2022-12-04T10:35:16.333Z,18.20
2022-12-04T10:37:46.824Z,19.65
2022-12-04T10:40:23.412Z,19.38
2022-12-04T10:42:57.491Z,20.70
2022-12-04T10:45:25.256Z,22.87
2022-12-04T10:47:54.381Z,19.50
2022-12-04T10:50:25.052Z,18.27
2022-12-04T10:52:54.076Z,18.90
2022-12-04T10:55:33.416Z,18.83
2022-12-04T10:58:02.622Z,17.80
2022-12-04T11:00:32.555Z,17.67
2022-12-04T11:03:02.004Z,16.90
2022-12-04T11:05:33.583Z,17.13
2022-12-04T11:08:05.907Z,19.05
2022-12-04T11:10:37.642Z,20.08
2022-12-04T11:13:07.253Z,19.40
2022-12-04T11:15:37.315Z,18.20
2022-12-04T11:18:09.108Z,18.10
2022-12-04T11:20:37.111Z,19.63
2022-12-04T11:23:06.487Z,21.45
2022-12-04T11:25:38.946Z,20.90
2022-12-04T11:28:06.837Z,20.63
2022-12-04T11:30:38.068Z,20.40
2022-12-04T11:33:16.116Z,19.98
2022-12-04T11:35:44.111Z,18.33
2022-12-04T11:38:17.392Z,19.40
2022-12-04T11:40:48.994Z,19.45
2022-12-04T11:43:19.571Z,22.58
2022-12-04T11:45:55.728Z,19.92
2022-12-04T11:48:23.605Z,19.80
2022-12-04T11:50:58.526Z,19.02
2022-12-04T11:53:40.653Z,19.70
2022-12-04T11:56:23.665Z,21.38
2022-12-04T11:59:24.277Z,20.80
2022-12-04T12:01:58.741Z,21.65
2022-12-04T12:05:08.121Z,30.47
2022-12-04T12:07:49.834Z,24.63
2022-12-04T12:10:27.110Z,24.27
2022-12-04T12:13:06.722Z,25.63
2022-12-04T12:15:42.834Z,26.05
2022-12-04T12:18:32.398Z,26.48
2022-12-04T12:21:08.832Z,24.58
2022-12-04T12:23:51.731Z,23.33
2022-12-04T12:26:21.022Z,26.92
2022-12-04T12:29:10.131Z,22.92
2022-12-04T12:31:53.457Z,23.40
2022-12-04T12:34:30.651Z,24.60
2022-12-04T12:37:01.146Z,25.55
2022-12-04T12:39:37.962Z,24.42
2022-12-04T12:42:13.526Z,26.30
2022-12-04T12:44:47.750Z,26.48
2022-12-04T12:47:20.160Z,26.23
2022-12-04T12:49:54.087Z,28.55
2022-12-04T12:52:39.306Z,25.55
2022-12-04T12:55:17.065Z,25.40
2022-12-04T12:57:50.819Z,24.92
2022-12-04T13:00:21.547Z,27.35
2022-12-04T13:02:55.313Z,28.58
2022-12-04T13:05:28.855Z,32.85
2022-12-04T13:08:05.023Z,26.05
2022-12-04T13:10:37.331Z,26.23
2022-12-04T13:13:11.990Z,27.88
2022-12-04T13:15:44.582Z,25.45
2022-12-04T13:18:24.164Z,27.10
2022-12-04T13:20:56.221Z,24.42
2022-12-04T13:23:40.228Z,25.40
2022-12-04T13:26:16.288Z,26.85
2022-12-04T13:28:54.557Z,25.67
2022-12-04T13:31:33.500Z,30.80
2022-12-04T13:34:34.958Z,29.35
2022-12-04T13:37:23.234Z,32.95
2022-12-04T13:40:29.939Z,26.15
2022-12-04T13:43:21.248Z,24.70
2022-12-04T13:45:53.026Z,24.42
2022-12-04T13:48:36.757Z,25.20
2022-12-04T13:51:08.501Z,27.15
2022-12-04T13:53:39.743Z,29.30
2022-12-04T13:56:13.509Z,27.65
2022-12-04T13:58:43.324Z,28.23
2022-12-04T14:01:25.971Z,28.30
2022-12-04T14:03:57.395Z,25.80
2022-12-04T14:06:27.865Z,27.58
2022-12-04T14:08:59.668Z,28.60
2022-12-04T14:11:29.436Z,27.02
2022-12-04T14:14:03.627Z,24.73
2022-12-04T14:16:41.234Z,26.02
2022-12-04T14:19:09.866Z,25.80
2022-12-04T14:21:41.613Z,27.55
2022-12-04T14:24:17.945Z,27.73
2022-12-04T14:27:10.540Z,28.00
2022-12-04T14:29:48.483Z,27.92
2022-12-04T14:32:22.585Z,25.55
2022-12-04T14:34:51.020Z,26.10
2022-12-04T14:37:26.170Z,26.02
2022-12-04T14:39:54.445Z,26.55
2022-12-04T14:42:26.638Z,26.00
2022-12-04T14:44:56.921Z,27.38
2022-12-04T14:47:39.715Z,28.13
2022-12-04T14:50:20.619Z,27.80
2022-12-04T14:52:54.135Z,26.85
2022-12-04T14:55:31.827Z,26.08
2022-12-04T14:58:21.691Z,24.45
2022-12-04T15:00:53.756Z,23.00
2022-12-04T15:03:23.710Z,22.77
2022-12-04T15:05:52.125Z,23.65
2022-12-04T15:08:20.275Z,23.60
2022-12-04T15:11:05.503Z,24.23
2022-12-04T15:13:34.725Z,24.35
2022-12-04T15:16:10.006Z,23.90
2022-12-04T15:18:39.819Z,24.52
2022-12-04T15:21:11.543Z,23.58
2022-12-04T15:23:41.797Z,23.83
2022-12-04T15:26:14.306Z,23.73
2022-12-04T15:28:46.353Z,24.13
2022-12-04T15:31:18.325Z,23.25
2022-12-04T15:33:50.303Z,23.75
2022-12-04T15:36:21.289Z,23.73
2022-12-04T15:38:51.145Z,23.58
2022-12-04T15:41:30.420Z,25.25
2022-12-04T15:43:58.249Z,24.17
2022-12-04T15:46:31.081Z,26.37
2022-12-04T15:49:18.495Z,24.37
2022-12-04T15:51:47.615Z,25.17
2022-12-04T15:54:22.256Z,25.75
2022-12-04T15:56:59.568Z,24.85
2022-12-04T15:59:29.434Z,24.50
2022-12-04T16:02:01.893Z,24.92
2022-12-04T16:04:35.397Z,25.25
2022-12-04T16:07:03.279Z,25.07
2022-12-04T16:09:30.972Z,25.67
2022-12-04T16:12:00.776Z,24.35
2022-12-04T16:14:28.840Z,24.58
2022-12-04T16:17:06.002Z,25.35
2022-12-04T16:19:38.115Z,25.13
2022-12-04T16:22:13.010Z,24.75
2022-12-04T16:24:40.891Z,25.10
2022-12-04T16:27:13.879Z,25.00
2022-12-04T16:29:41.615Z,25.20
2022-12-04T16:32:12.390Z,25.02
2022-12-04T16:34:41.644Z,25.60
2022-12-04T16:37:14.226Z,25.80
2022-12-04T16:39:41.935Z,26.88
2022-12-04T16:42:19.701Z,25.10
2022-12-04T16:44:47.440Z,23.88
2022-12-04T16:47:16.204Z,24.20
2022-12-04T16:49:46.315Z,23.02
2022-12-04T16:52:14.461Z,22.45
2022-12-04T16:54:42.369Z,23.80
2022-12-04T16:57:10.436Z,23.52
2022-12-04T16:59:38.487Z,22.48
2022-12-04T17:02:14.816Z,22.90
2022-12-04T17:04:42.461Z,23.05
2022-12-04T17:07:11.464Z,22.85
2022-12-04T17:09:39.062Z,22.00
2022-12-04T17:12:06.848Z,22.70
2022-12-04T17:14:34.431Z,23.48
2022-12-04T17:17:02.051Z,23.52
2022-12-04T17:19:29.683Z,23.57
2022-12-04T17:21:58.200Z,23.88
2022-12-04T17:24:27.191Z,24.65
2022-12-04T17:26:54.860Z,24.30
2022-12-04T17:29:22.436Z,24.27
2022-12-04T17:31:50.140Z,22.63
2022-12-04T17:34:17.832Z,24.50
2022-12-04T17:36:45.413Z,24.13
2022-12-04T17:39:13.472Z,24.55
2022-12-04T17:41:42.761Z,24.75
2022-12-04T17:44:10.339Z,25.42
2022-12-04T17:46:37.958Z,24.38
2022-12-04T17:49:07.461Z,25.75
2022-12-04T17:51:35.736Z,25.88
2022-12-04T17:54:03.336Z,31.08
2022-12-04T17:56:30.973Z,27.38
2022-12-04T17:59:00.115Z,25.73
2022-12-04T18:01:30.068Z,28.38
2022-12-04T18:03:59.698Z,26.67
2022-12-04T18:06:29.386Z,28.55
2022-12-04T18:08:57.537Z,27.92
2022-12-04T18:11:27.468Z,29.23
2022-12-04T18:13:57.152Z,29.47
2022-12-04T18:16:27.449Z,30.10
2022-12-04T18:18:56.557Z,27.85
2022-12-04T18:21:24.688Z,27.42
2022-12-04T18:23:52.809Z,27.05
2022-12-04T18:26:23.626Z,27.33
2022-12-04T18:28:52.756Z,25.83
2022-12-04T18:31:20.801Z,26.67
2022-12-04T18:33:50.204Z,25.45
2022-12-04T18:36:20.363Z,24.63
2022-12-04T18:38:53.373Z,24.60
2022-12-04T18:41:46.690Z,24.20
2022-12-04T18:44:15.357Z,23.80
2022-12-04T18:46:43.577Z,23.55
2022-12-04T18:49:12.965Z,24.80
2022-12-04T18:51:46.985Z,23.73
2022-12-04T18:54:19.813Z,24.10
2022-12-04T18:56:47.808Z,23.58
2022-12-04T18:59:17.827Z,23.40
2022-12-04T19:01:45.672Z,23.73
2022-12-04T19:04:17.287Z,24.23
2022-12-04T19:06:47.041Z,23.80
2022-12-04T19:09:16.752Z,24.53
2022-12-04T19:11:45.140Z,24.23
2022-12-04T19:14:22.426Z,23.63
2022-12-04T19:16:51.456Z,23.05
2022-12-04T19:19:20.902Z,23.13
2022-12-04T19:21:48.562Z,23.20
2022-12-04T19:24:16.128Z,23.70
2022-12-04T19:26:44.874Z,22.73
2022-12-04T19:29:14.136Z,22.65
2022-12-04T19:31:42.209Z,22.37
2022-12-04T19:34:10.041Z,22.55
2022-12-04T19:36:40.232Z,23.00
2022-12-04T19:39:08.036Z,23.20
2022-12-04T19:41:37.409Z,22.08
2022-12-04T19:44:20.025Z,21.83
2022-12-04T19:46:53.398Z,23.77
2022-12-04T19:49:21.076Z,24.52
2022-12-04T19:51:50.458Z,24.08
2022-12-04T19:54:19.170Z,22.83
2022-12-04T19:56:51.125Z,22.63
2022-12-04T19:59:19.715Z,24.25
2022-12-04T20:01:47.687Z,26.73
2022-12-04T20:04:15.630Z,26.08
2022-12-04T20:06:45.727Z,23.77
2022-12-04T20:09:19.264Z,23.92
2022-12-04T20:11:47.144Z,24.58
2022-12-04T20:14:15.428Z,24.73
2022-12-04T20:16:43.213Z,25.35
2022-12-04T20:19:17.150Z,24.75
2022-12-04T20:21:46.299Z,25.65
2022-12-04T20:24:17.039Z,25.23
2022-12-04T20:26:47.073Z,24.25
2022-12-04T20:29:18.973Z,26.20
2022-12-04T20:31:47.854Z,26.88
2022-12-04T20:34:17.212Z,28.00
2022-12-04T20:36:47.164Z,27.77
2022-12-04T20:39:17.850Z,27.50
2022-12-04T20:41:46.350Z,29.10
2022-12-04T20:44:17.049Z,28.38
2022-12-04T20:46:45.277Z,26.23
2022-12-04T20:49:21.077Z,26.52
2022-12-04T20:51:50.069Z,25.75
2022-12-04T20:54:21.995Z,25.23
2022-12-04T20:56:51.992Z,27.05
2022-12-04T20:59:21.494Z,24.60
2022-12-04T21:01:49.944Z,23.63
2022-12-04T21:04:18.670Z,23.67
2022-12-04T21:06:47.576Z,23.75
2022-12-04T21:09:17.071Z,25.77
2022-12-04T21:11:47.982Z,23.98
2022-12-04T21:14:35.336Z,23.17
2022-12-04T21:17:03.509Z,22.52
2022-12-04T21:19:32.204Z,23.17
2022-12-04T21:21:59.885Z,22.60
2022-12-04T21:24:28.696Z,22.10
2022-12-04T21:26:57.757Z,22.88
2022-12-04T21:29:25.425Z,21.45
2022-12-04T21:31:53.223Z,22.70
2022-12-04T21:34:21.005Z,22.02
2022-12-04T21:36:48.706Z,20.63
2022-12-04T21:39:16.820Z,20.70
2022-12-04T21:42:02.189Z,20.63
2022-12-04T21:44:31.449Z,20.58
2022-12-04T21:46:59.356Z,20.25
2022-12-04T21:49:28.460Z,20.38
2022-12-04T21:51:58.151Z,19.52
2022-12-04T21:54:26.565Z,21.00
2022-12-04T21:56:54.487Z,20.40
2022-12-04T21:59:22.299Z,19.83
2022-12-04T22:01:52.393Z,19.48
2022-12-04T22:04:20.061Z,18.03
2022-12-04T22:06:47.661Z,18.60
2022-12-04T22:09:15.460Z,18.42
2022-12-04T22:11:43.553Z,17.58
2022-12-04T22:14:12.135Z,19.08
2022-12-04T22:16:42.436Z,20.38
2022-12-04T22:19:12.719Z,20.80
2022-12-04T22:21:40.596Z,22.20
2022-12-04T22:24:10.327Z,22.50
2022-12-04T22:26:38.928Z,21.65
2022-12-04T22:29:27.177Z,21.35
2022-12-04T22:31:54.471Z,21.38
2022-12-04T22:34:23.344Z,21.02
2022-12-04T22:36:51.158Z,19.45
2022-12-04T22:39:18.798Z,19.70
2022-12-04T22:41:46.378Z,19.00
2022-12-04T22:44:13.903Z,18.83
2022-12-04T22:46:41.531Z,19.70
2022-12-04T22:49:09.087Z,20.10
2022-12-04T22:51:37.986Z,20.83
2022-12-04T22:54:07.835Z,21.27
2022-12-04T22:56:35.418Z,21.30
2022-12-04T22:59:03.070Z,22.42
2022-12-04T23:01:32.900Z,21.37
2022-12-04T23:04:01.356Z,20.77
2022-12-04T23:06:30.843Z,21.90
2022-12-04T23:09:01.952Z,21.05
2022-12-04T23:11:29.809Z,20.92
2022-12-04T23:14:00.157Z,20.63
2022-12-04T23:16:29.432Z,20.65
2022-12-04T23:18:57.389Z,20.48
2022-12-04T23:21:25.372Z,20.30
2022-12-04T23:23:54.795Z,20.27
2022-12-04T23:26:27.819Z,19.95
2022-12-04T23:28:57.068Z,20.23
2022-12-04T23:31:25.254Z,20.45
2022-12-04T23:33:52.930Z,20.73
2022-12-04T23:36:20.809Z,20.35
2022-12-04T23:38:48.783Z,20.35
2022-12-04T23:41:18.338Z,20.23
2022-12-04T23:43:48.145Z,19.88
2022-12-04T23:46:18.245Z,19.42
2022-12-04T23:48:46.397Z,20.50
2022-12-04T23:51:17.044Z,20.45
2022-12-04T23:53:45.333Z,20.10
2022-12-04T23:56:15.810Z,20.30
2022-12-04T23:58:44.453Z,20.05
